Latest Weather Observations for Armidale Airport

IDN60801

Issued at 4:12 pm EDT Tuesday 29 November 2022 (issued every 10 minutes, with the page automatically refreshed every 10 minutes)

About weather observations | Map of weather stations | Latest weather observations for NSW | Other Formats
Station Details ID: 056238 Name: ARMIDALE AIRPORT AWS Lat: -30.53 Lon: 151.62 Height: 1079.0 m
Data from the previous 72 hours. | See also: Recent months at Armidale Airport
Date/Time
EDT
Temp
°C
App
Temp
°C
Dew
Point
°C
Rel
Hum
%
Delta-T
°C
Wind Press
QNH
hPa
Press
MSL
hPa
Rain since
9am
mm
Dir  Spd
km/h
Gust
km/h
Spd
kts
Gust
kts
29/04:00pm 23.3 18.1 2.2 25 10.6 SW 19 28 10 15 1012.6 1008.0 0.0
29/03:30pm 23.8 20.9 4.7 29 10.0 S 9 20 5 11 1012.9 1008.3 0.0
29/03:00pm 23.1 20.2 4.6 30 9.7 SW 9 15 5 8 1013.1 1008.5 0.0
29/02:30pm 23.6 20.2 6.0 32 9.5 W 13 20 7 11 1013.3 1008.6 0.0
29/02:00pm 22.5 18.4 4.1 30 9.5 SW 15 24 8 13 1013.5 1008.9 0.0
29/01:30pm 22.7 17.8 4.2 30 9.6 W 19 28 10 15 1013.9 1009.3 0.0
29/01:00pm 22.0 17.3 5.0 33 8.9 SW 19 30 10 16 1014.0 1009.4 0.0
29/12:30pm 21.7 17.5 5.6 35 8.5 WSW 17 26 9 14 1014.1 1009.5 0.0
29/12:00pm 21.0 16.8 5.8 37 8.0 WSW 17 26 9 14 1014.3 1009.7 0.0
29/11:30am 20.6 16.2 4.6 35 8.2 WSW 17 26 9 14 1014.4 1009.8 0.0
29/11:00am 20.1 17.0 8.8 48 6.3 WSW 15 30 8 16 1014.4 1009.8 0.0
29/10:30am 19.2 14.0 5.3 40 7.2 WSW 22 30 12 16 1014.4 1009.8 0.0
29/10:00am 18.4 14.1 7.2 48 6.0 W 19 26 10 14 1014.1 1009.5 0.0
29/09:30am 17.5 13.0 6.1 47 5.9 WSW 19 24 10 13 1013.9 1009.3 0.0
29/09:00am 17.1 13.8 10.9 67 3.5 WSW 19 22 10 12 1013.8 1009.2 0.2
29/08:30am 16.2 13.1 8.9 62 4.0 W 15 19 8 10 1013.7 1009.1 0.2
29/08:00am 15.0 12.5 9.8 71 2.9 W 13 17 7 9 1013.5 1008.9 0.2
29/07:30am 13.7 11.3 8.7 72 2.7 W 11 13 6 7 1013.0 1008.4 0.2
29/07:00am 12.4 11.4 8.9 79 1.9 W 4 7 2 4 1013.0 1008.4 0.2
29/06:30am 10.5 8.9 8.1 85 1.2 W 6 6 3 3 1012.8 1008.2 0.2
29/06:00am 8.7 6.1 6.0 83 1.3 W 9 11 5 6 1012.4 1007.7 0.2
29/05:30am 8.6 6.4 6.1 84 1.2 WNW 7 9 4 5 1011.6 1006.9 0.2
29/05:00am 8.2 5.2 6.0 86 1.1 W 11 13 6 7 1011.6 1006.9 0.2
29/04:30am 7.7 4.3 5.8 88 0.9 W 13 15 7 8 1011.3 1006.6 0.2
29/04:00am 7.7 5.1 6.3 91 0.7 WNW 9 11 5 6 1011.1 1006.5 0.2
29/03:38am 8.6 6.5 8.2 97 0.2 W 9 11 5 6 1011.1 1006.5 0.2
29/03:30am 9.0 7.4 8.7 98 0.2 W 7 9 4 5 1011.1 1006.5 0.2
29/03:21am 9.1 7.5 8.8 98 0.2 WNW 7 9 4 5 1011.3 1006.6 0.2
29/03:11am 8.8 7.1 8.4 97 0.2 WNW 7 9 4 5 1011.3 1006.6 0.2
29/03:00am 9.3 8.7 8.8 97 0.3 NW 2 7 1 4 1011.4 1006.7 0.2
29/02:30am 9.2 8.8 8.3 94 0.5 CALM 0 0 0 0 1011.5 1006.8 0.2
29/02:00am 11.8 11.8 11.3 97 0.3 N 2 6 1 3 1011.5 1006.8 0.2
29/01:30am 12.7 12.7 12.4 98 0.2 NNE 4 6 2 3 1011.6 1006.9 0.2
29/01:09am 12.7 12.1 12.4 98 0.2 NE 7 9 4 5 1011.7 1007.0 0.2
29/01:00am 12.9 12.4 12.6 98 0.2 NE 7 9 4 5 1011.7 1007.0 0.2
29/12:30am 13.7 13.1 13.4 98 0.2 E 9 13 5 7 1011.8 1007.2 0.2
29/12:00am 13.0 12.1 12.7 98 0.2 ENE 9 11 5 6 1011.9 1007.3 0.2
 
Date/Time
EDT
Temp
°C
App
Temp
°C
Dew
Point
°C
Rel
Hum
%
Delta-T
°C
Wind Press
QNH
hPa
Press
MSL
hPa
Rain since
9am
mm
Dir  Spd
km/h
Gust
km/h
Spd
kts
Gust
kts
28/11:46pm 12.1 10.9 11.6 97 0.3 ENE 9 11 5 6 1011.9 1007.3 0.2
28/11:41pm 11.6 10.2 11.0 96 0.3 ENE 9 11 5 6 1011.8 1007.2 0.2
28/11:39pm 11.5 10.1 10.9 96 0.3 ENE 9 11 5 6 1011.8 1007.2 0.2
28/11:37pm 11.7 10.4 11.1 96 0.3 ENE 9 9 5 5 1011.8 1007.2 0.2
28/11:30pm 11.7 10.4 10.1 90 0.9 ENE 7 7 4 4 1011.8 1007.2 0.2
28/11:00pm 13.6 12.4 8.0 69 2.9 E 4 7 2 4 1011.6 1006.9 0.2
28/10:30pm 13.7 10.9 7.0 64 3.5 W 11 13 6 7 1011.6 1006.9 0.2
28/10:00pm 13.9 11.1 7.0 63 3.6 W 11 13 6 7 1011.4 1006.7 0.2
28/09:30pm 14.4 11.7 7.5 63 3.6 W 11 13 6 7 1010.8 1006.1 0.2
28/09:00pm 14.6 11.5 7.4 62 3.8 W 13 15 7 8 1010.4 1005.7 0.2
28/08:30pm 17.1 14.4 7.2 52 5.2 SW 11 11 6 6 1010.0 1005.3 0.2
28/08:00pm 16.4 13.4 7.9 57 4.5 WSW 13 15 7 8 1009.6 1004.9 0.2
28/07:30pm 18.9 16.2 9.1 53 5.4 WSW 13 15 7 8 1009.4 1004.7 0.2
28/07:00pm 21.2 18.7 9.8 48 6.5 WSW 13 20 7 11 1009.1 1004.4 0.2
28/06:30pm 22.6 19.3 9.7 44 7.4 WSW 17 26 9 14 1008.6 1003.9 0.2
28/06:00pm 23.6 19.1 9.9 42 7.9 SW 24 35 13 19 1008.4 1003.6 0.2
28/05:30pm 23.1 19.8 11.5 48 6.8 WSW 20 33 11 18 1008.3 1003.5 0.2
28/05:00pm 23.2 18.9 10.9 46 7.2 WSW 24 32 13 17 1007.9 1003.2 0.2
28/04:30pm 23.4 19.1 10.8 45 7.3 W 24 33 13 18 1008.0 1003.3 0.2
28/04:00pm 24.6 19.6 9.7 39 8.6 WNW 26 37 14 20 1008.3 1003.5 0.2
28/03:30pm 24.1 19.3 11.8 46 7.3 WNW 28 35 15 19 1008.5 1003.8 0.2
28/03:00pm 21.4 17.6 12.3 56 5.4 NW 24 39 13 21 1008.9 1004.2 0.2
28/02:30pm 22.1 17.8 13.2 57 5.4 NW 28 37 15 20 1008.9 1004.2 0.2
28/02:00pm 24.4 19.7 13.3 50 6.8 WNW 30 43 16 23 1008.9 1004.2 0.2
28/01:30pm 22.2 16.8 12.2 53 5.9 WNW 32 44 17 24 1008.7 1004.0 0.2
28/01:03pm 24.1 18.5 11.4 45 7.5 WNW 32 46 17 25 1008.8 1004.1 0.2
28/01:00pm 24.1 19.2 13.6 52 6.4 WNW 32 43 17 23 1008.9 1004.2 0.2
28/12:53pm 24.5 20.0 12.5 47 7.2 NW 28 44 15 24 1008.9 1004.2 0.2
28/12:30pm 22.8 19.4 13.6 56 5.6 WNW 24 35 13 19 1009.3 1004.6 0.2
28/12:00pm 22.3 19.1 14.2 60 5.0 WNW 24 35 13 19 1009.7 1005.0 0.0
28/11:30am 21.7 17.8 14.4 63 4.5 WNW 28 37 15 20 1009.9 1005.2 0.0
28/11:12am 20.4 16.8 14.1 67 3.8 WNW 26 32 14 17 1009.8 1005.1 0.0
28/11:00am 20.9 18.5 14.5 67 3.9 WNW 20 30 11 16 1009.9 1005.2 0.0
28/10:30am 19.0 16.9 15.1 78 2.4 WNW 20 26 11 14 1010.0 1005.3 0.0
28/10:00am 17.7 15.3 15.3 86 1.5 W 22 32 12 17 1010.1 1005.5 0.0
28/09:30am 17.5 14.9 14.8 84 1.6 WNW 22 35 12 19 1010.3 1005.6 0.0
28/09:00am 17.2 15.0 15.0 87 1.3 WNW 20 32 11 17 1010.4 1005.7 0.2
28/08:30am 17.7 15.3 15.3 86 1.5 NW 22 32 12 17 1010.1 1005.5 0.2
28/08:00am 16.8 13.0 14.8 88 1.2 NW 28 41 15 22 1009.9 1005.2 0.2
28/07:34am 16.7 12.9 14.7 88 1.2 NW 28 35 15 19 1009.8 1005.1 0.2
28/07:30am 16.8 13.0 14.8 88 1.2 NW 28 35 15 19 1009.7 1005.0 0.2
28/07:26am 16.6 12.8 14.8 89 1.1 NW 28 39 15 21 1009.7 1005.0 0.2
28/07:00am 16.3 13.0 14.1 87 1.3 NNW 24 39 13 21 1009.5 1004.8 0.2
28/06:52am 16.3 12.7 14.1 87 1.3 NW 26 35 14 19 1009.5 1004.8 0.2
28/06:38am 16.1 12.7 13.8 86 1.4 NW 24 33 13 18 1009.5 1004.8 0.2
28/06:30am 16.0 13.0 13.7 86 1.4 NW 22 30 12 16 1009.5 1004.8 0.2
28/06:00am 16.0 12.7 14.0 88 1.2 NNW 24 33 13 18 1009.5 1004.8 0.2
28/05:30am 15.7 13.2 14.1 90 1.0 NNW 20 32 11 17 1009.0 1004.3 0.2
28/05:00am 15.6 13.7 14.1 91 0.9 NW 17 26 9 14 1009.3 1004.6 0.2
28/04:30am 15.3 12.9 13.8 91 0.9 NW 19 26 10 14 1009.1 1004.4 0.2
28/04:03am 15.4 12.9 13.6 89 1.1 NW 19 30 10 16 1009.3 1004.6 0.2
28/04:00am 15.4 12.7 13.6 89 1.1 NW 20 30 11 16 1009.4 1004.7 0.2
28/03:30am 15.3 10.7 13.5 89 1.1 NNW 30 41 16 22 1008.8 1004.1 0.2
28/03:00am 15.5 11.2 13.3 87 1.3 NW 28 35 15 19 1008.1 1003.4 0.0
28/02:30am 16.7 14.0 12.8 78 2.3 NNW 19 28 10 15 1008.7 1004.0 0.0
28/02:00am 16.5 13.5 12.7 78 2.2 NW 20 32 11 17 1008.9 1004.2 0.0
28/01:30am 16.8 13.0 12.3 75 2.6 NNW 24 35 13 19 1009.0 1004.3 0.0
28/01:00am 17.1 13.0 12.8 76 2.5 NW 26 37 14 20 1009.6 1004.9 0.0
28/12:30am 16.9 12.8 12.6 76 2.5 NW 26 37 14 20 1009.7 1005.0 0.0
28/12:00am 17.1 11.7 12.2 73 2.8 NNW 32 41 17 22 1009.7 1005.0 0.0
 
Date/Time
EDT
Temp
°C
App
Temp
°C
Dew
Point
°C
Rel
Hum
%
Delta-T
°C
Wind Press
QNH
hPa
Press
MSL
hPa
Rain since
9am
mm
Dir  Spd
km/h
Gust
km/h
Spd
kts
Gust
kts
27/11:30pm 17.6 12.4 11.6 68 3.5 NNW 30 43 16 23 1009.9 1005.2 0.0
27/11:00pm 17.8 12.8 10.9 64 3.9 NNW 28 39 15 21 1009.9 1005.2 0.0
27/10:30pm 17.3 13.3 10.4 64 3.9 N 22 32 12 17 1009.7 1005.0 0.0
27/10:00pm 17.1 13.0 11.6 70 3.2 NNW 24 32 13 17 1009.7 1005.0 0.0
27/09:30pm 17.1 13.9 11.8 71 3.1 NNW 20 28 11 15 1009.9 1005.2 0.0
27/09:00pm 17.1 14.0 12.2 73 2.8 NNW 20 28 11 15 1010.0 1005.3 0.0
27/08:30pm 16.7 14.0 11.6 72 2.9 NNW 17 24 9 13 1009.9 1005.2 0.0
27/08:00pm 17.8 14.6 11.8 68 3.5 NNW 20 28 11 15 1009.8 1005.1 0.0
27/07:30pm 18.2 15.8 11.5 65 3.9 NNW 15 20 8 11 1009.8 1005.1 0.0
27/07:00pm 20.0 17.0 12.0 60 4.7 NNW 19 24 10 13 1009.3 1004.6 0.0
27/06:30pm 21.4 18.1 11.7 54 5.7 NNW 20 30 11 16 1008.9 1004.2 0.0
27/06:00pm 22.0 18.1 12.0 53 5.9 NNW 24 30 13 16 1009.0 1004.3 0.0
27/05:30pm 22.0 17.7 12.0 53 5.9 NNW 26 35 14 19 1008.9 1004.2 0.0
27/05:00pm 25.2 21.2 8.2 34 9.6 WNW 19 26 10 14 1009.0 1004.3 0.0
27/04:30pm 23.8 17.9 5.7 31 9.7 NW 26 37 14 20 1009.1 1004.4 0.0
27/04:00pm 25.5 20.1 6.2 29 10.5 WNW 24 33 13 18 1009.1 1004.4 0.0
27/03:30pm 25.9 21.0 7.0 30 10.5 WNW 22 32 12 17 1009.4 1004.7 0.0
27/03:00pm 25.2 19.9 4.9 27 10.8 W 22 30 12 16 1009.6 1004.9 0.0
27/02:30pm 25.7 19.7 3.6 24 11.5 WNW 24 33 13 18 1010.3 1005.6 0.0
27/02:00pm 25.0 18.8 6.2 30 10.2 WNW 28 39 15 21 1010.6 1005.9 0.0
27/01:30pm 24.4 19.8 8.0 35 9.2 NW 22 39 12 21 1010.9 1006.3 0.0
27/01:00pm 23.3 18.5 10.4 44 7.5 NW 26 35 14 19 1011.0 1006.4 0.0
27/12:30pm 21.6 17.9 10.1 48 6.6 WNW 20 30 11 16 1011.4 1006.7 0.0
27/12:00pm 20.4 17.0 11.1 55 5.4 NW 20 28 11 15 1011.4 1006.7 0.0
27/11:30am 19.6 16.4 11.4 59 4.7 NW 19 24 10 13 1011.9 1007.3 0.0
27/11:00am 18.8 15.5 11.6 63 4.2 NW 20 28 11 15 1012.1 1007.5 0.0
27/10:30am 18.5 15.4 11.6 64 4.0 NW 19 28 10 15 1012.5 1007.8 0.0
27/10:00am 18.1 14.6 11.0 63 4.1 NW 20 28 11 15 1012.4 1007.7 0.0
27/09:30am 17.8 14.4 10.7 63 4.0 NNW 19 26 10 14 1012.3 1007.6 0.0
27/09:00am 17.5 14.0 10.9 65 3.8 NW 20 28 11 15 1012.4 1007.7 0.0
27/08:30am 16.7 14.5 12.0 74 2.7 NW 15 20 8 11 1012.5 1007.8 0.0
27/08:00am 15.4 14.4 12.3 82 1.8 NW 9 13 5 7 1012.1 1007.5 0.0
27/07:30am 13.5 12.6 11.2 86 1.3 WNW 7 11 4 6 1012.0 1007.4 0.0
27/07:00am 12.2 12.7 11.6 96 0.3 CALM 0 0 0 0 1011.8 1007.2 0.0
27/06:30am 11.5 10.0 10.6 94 0.5 S 9 11 5 6 1011.7 1007.0 0.0
27/06:00am 10.8 8.8 10.3 97 0.3 ENE 11 13 6 7 1011.1 1006.5 0.0
27/05:30am 10.5 9.4 9.9 96 0.3 E 6 7 3 4 1011.3 1006.6 0.0
27/05:00am 9.9 9.0 9.4 97 0.3 E 4 6 2 3 1011.3 1006.6 0.0
27/04:30am 9.9 8.5 9.6 98 0.2 E 7 9 4 5 1011.1 1006.5 0.0
27/04:21am 9.9 8.5 9.6 98 0.2 ESE 7 7 4 4 1011.1 1006.5 0.0
27/04:16am 10.0 8.6 9.7 98 0.2 ESE 7 7 4 4 1011.1 1006.5 0.0
27/04:00am 9.4 7.9 9.1 98 0.2 NE 7 9 4 5 1011.3 1006.6 0.0
27/03:30am 10.3 8.6 10.0 98 0.2 NE 9 9 5 5 1011.5 1006.8 0.0
27/03:28am 10.4 8.8 10.1 98 0.2 NE 9 9 5 5 1011.5 1006.8 0.0
27/03:27am 10.4 9.1 10.1 98 0.2 NE 7 9 4 5 1011.5 1006.8 0.0
27/03:00am 10.7 8.8 10.4 98 0.2 NE 11 11 6 6 1011.8 1007.2 0.0
27/02:30am 11.0 9.5 10.7 98 0.2 ENE 9 11 5 6 1012.1 1007.5 0.0
27/02:00am 11.3 9.9 11.0 98 0.2 ENE 9 11 5 6 1012.5 1007.8 0.0
27/01:30am 12.0 10.4 11.7 98 0.2 ENE 11 15 6 8 1012.8 1008.2 0.0
27/01:00am 12.3 10.5 12.0 98 0.2 ENE 13 15 7 8 1013.1 1008.5 0.0
27/12:30am 12.8 11.5 12.5 98 0.2 ENE 11 15 6 8 1013.6 1009.0 0.0
27/12:00am 12.9 10.5 12.6 98 0.2 ENE 17 20 9 11 1013.8 1009.2 0.0
 
Date/Time
EDT
Temp
°C
App
Temp
°C
Dew
Point
°C
Rel
Hum
%
Delta-T
°C
Wind Press
QNH
hPa
Press
MSL
hPa
Rain since
9am
mm
Dir  Spd
km/h
Gust
km/h
Spd
kts
Gust
kts
26/11:30pm 13.0 11.0 12.7 98 0.2 E 15 20 8 11 1014.1 1009.5 0.0
26/11:12pm 13.1 11.0 12.5 96 0.3 E 15 17 8 9 1014.4 1009.8 0.0
26/11:08pm 13.1 11.0 12.5 96 0.3 E 15 20 8 11 1014.4 1009.8 0.0
26/11:00pm 13.1 11.0 12.3 95 0.5 E 15 20 8 11 1014.4 1009.8 0.0
26/10:30pm 13.6 12.0 12.7 94 0.5 E 13 19 7 10 1014.4 1009.8 0.0
26/10:00pm 13.9 11.9 12.6 92 0.7 E 15 19 8 10 1014.6 1010.0 0.0
26/09:30pm 14.5 12.4 12.5 88 1.2 E 15 17 8 9 1014.4 1009.8 0.0
26/09:00pm 15.0 13.1 8.9 67 3.3 SSE 9 17 5 9 1014.3 1009.7 0.0
26/08:30pm 16.0 13.4 5.9 51 5.2 WSW 9 9 5 5 1014.0 1009.4 0.0
26/08:00pm 16.7 14.2 6.5 51 5.3 WSW 9 9 5 5 1013.6 1009.0 0.0
26/07:30pm 18.1 14.7 5.7 44 6.4 WSW 13 17 7 9 1013.7 1009.1 0.0
26/07:00pm 20.9 18.0 6.4 39 7.7 WSW 11 13 6 7 1013.6 1009.0 0.0
26/06:30pm 22.5 18.4 4.5 31 9.3 WSW 15 19 8 10 1013.3 1008.6 0.0
26/06:00pm 23.3 19.3 4.8 30 9.7 W 15 20 8 11 1013.1 1008.5 0.0
26/05:30pm 23.8 20.5 4.7 29 10.0 W 11 20 6 11 1013.1 1008.5 0.0
26/05:00pm 24.2 20.5 4.6 28 10.3 W 13 22 7 12 1013.1 1008.5 0.0
26/04:30pm 24.1 20.9 5.0 29 10.1 WSW 11 19 6 10 1013.3 1008.6 0.0

Other formats

Comma delimited format used in spreadsheet applications
http://www.bom.gov.au/fwo/IDN60801/IDN60801.95773.axf

JavaScript Object Notation format (JSON) in row-major order
http://www.bom.gov.au/fwo/IDN60801/IDN60801.95773.json

Data quality

Most of these data are generated automatically and are frequently updated. Quality checks on data are not normally performed. It is possible for incorrect values to appear. Refer to information at About Latest Weather Observations and please check the disclaimer before using these data.